createdAt,value
2023-04-30T00:02:07.351Z,100959.78
2023-04-30T00:04:38.080Z,100977.22
2023-04-30T00:07:08.388Z,100968.56
2023-04-30T00:09:38.308Z,100965.50
2023-04-30T00:12:08.658Z,100961.72
2023-04-30T00:14:38.614Z,100961.63
2023-04-30T00:17:08.958Z,100959.75
2023-04-30T00:19:39.549Z,100958.78
2023-04-30T00:22:10.920Z,100967.13
2023-04-30T00:24:40.862Z,100970.38
2023-04-30T00:27:11.198Z,100974.25
2023-04-30T00:29:41.246Z,100968.69
2023-04-30T00:32:12.257Z,100971.00
2023-04-30T00:34:42.358Z,100971.50
2023-04-30T00:37:12.959Z,100975.09
2023-04-30T00:39:43.029Z,100978.75
2023-04-30T00:42:13.457Z,100969.91
2023-04-30T00:44:43.387Z,100970.63
2023-04-30T00:47:13.811Z,100975.84
2023-04-30T00:49:46.918Z,100974.25
2023-04-30T00:52:17.654Z,100981.50
2023-04-30T00:54:47.625Z,100981.56
2023-04-30T00:57:18.146Z,100977.63
2023-04-30T00:59:48.566Z,100983.22
2023-04-30T01:02:19.375Z,100981.84
2023-04-30T01:04:49.491Z,100982.28
2023-04-30T01:07:20.047Z,100982.47
2023-04-30T01:09:50.226Z,100980.69
2023-04-30T01:12:39.650Z,100977.22
2023-04-30T01:15:16.450Z,100985.13
2023-04-30T01:18:04.927Z,100971.44
2023-04-30T01:20:35.721Z,100968.34
2023-04-30T01:23:27.091Z,100969.34
2023-04-30T01:26:30.493Z,100975.88
2023-04-30T01:29:01.708Z,100975.66
2023-04-30T01:31:32.469Z,100968.69
2023-04-30T01:34:02.903Z,100967.47
2023-04-30T01:36:47.664Z,100967.00
2023-04-30T01:39:24.184Z,100967.56
2023-04-30T01:42:07.502Z,100966.91
2023-04-30T01:44:52.749Z,100961.16
2023-04-30T01:47:25.270Z,100971.31
2023-04-30T01:50:26.111Z,100955.34
2023-04-30T01:53:00.321Z,100968.84
2023-04-30T01:55:46.736Z,100969.28
2023-04-30T01:58:18.195Z,100963.84
2023-04-30T02:00:48.759Z,100968.56
2023-04-30T02:03:18.818Z,100962.94
2023-04-30T02:05:50.016Z,100968.13
2023-04-30T02:08:19.926Z,100965.28
2023-04-30T02:10:50.291Z,100967.63
2023-04-30T02:13:20.278Z,100958.00
2023-04-30T02:15:50.804Z,100959.72
2023-04-30T02:18:21.069Z,100957.44
2023-04-30T02:20:51.583Z,100959.25
2023-04-30T02:23:21.875Z,100970.22
2023-04-30T02:25:52.229Z,100961.06
2023-04-30T02:28:22.209Z,100964.56
2023-04-30T02:30:52.831Z,100961.81
2023-04-30T02:33:22.782Z,100960.72
2023-04-30T02:35:53.206Z,100956.66
2023-04-30T02:38:23.187Z,100960.41
2023-04-30T02:40:53.804Z,100952.00
2023-04-30T02:43:23.819Z,100946.47
2023-04-30T02:45:54.310Z,100953.81
2023-04-30T02:48:24.767Z,100948.72
2023-04-30T02:50:55.906Z,100952.97
2023-04-30T02:53:25.869Z,100950.75
2023-04-30T02:55:56.223Z,100952.97
2023-04-30T02:58:26.144Z,100941.84
2023-04-30T03:00:57.618Z,100942.28
2023-04-30T03:03:27.919Z,100936.09
2023-04-30T03:06:00.626Z,100937.53
2023-04-30T03:08:30.695Z,100938.19
2023-04-30T03:11:00.494Z,100941.38
2023-04-30T03:13:30.977Z,100934.59
2023-04-30T03:16:07.865Z,100930.50
2023-04-30T03:18:38.275Z,100936.19
2023-04-30T03:21:08.244Z,100932.56
2023-04-30T03:23:40.107Z,100930.16
2023-04-30T03:26:10.942Z,100934.66
2023-04-30T03:28:41.281Z,100925.69
2023-04-30T03:31:13.886Z,100930.44
2023-04-30T03:33:44.381Z,100928.31
2023-04-30T03:36:14.377Z,100927.41
2023-04-30T03:38:44.813Z,100924.81
2023-04-30T03:41:14.781Z,100917.69
2023-04-30T03:43:44.530Z,100925.97
2023-04-30T03:46:14.952Z,100917.34
2023-04-30T03:48:45.044Z,100916.22
2023-04-30T03:51:15.518Z,100909.38
2023-04-30T03:53:45.447Z,100909.16
2023-04-30T03:56:16.504Z,100901.19
2023-04-30T03:58:46.456Z,100904.41
2023-04-30T04:01:17.333Z,100908.00
2023-04-30T04:03:47.770Z,100912.97
2023-04-30T04:06:18.345Z,100911.25
2023-04-30T04:08:49.174Z,100903.84
2023-04-30T04:11:19.540Z,100906.94
2023-04-30T04:13:49.481Z,100901.00
2023-04-30T04:16:19.925Z,100900.66
2023-04-30T04:18:49.908Z,100900.31
2023-04-30T04:21:20.558Z,100897.44
2023-04-30T04:23:50.810Z,100895.72
2023-04-30T04:26:22.948Z,100899.63
2023-04-30T04:28:54.009Z,100900.38
2023-04-30T04:31:24.786Z,100891.78
2023-04-30T04:33:59.769Z,100885.06
2023-04-30T04:36:31.471Z,100887.38
2023-04-30T04:39:04.990Z,100889.75
2023-04-30T04:41:36.772Z,100883.16
2023-04-30T04:44:06.868Z,100878.63
2023-04-30T04:46:43.471Z,100880.41
2023-04-30T04:49:13.822Z,100874.88
2023-04-30T04:51:44.341Z,100884.13
2023-04-30T04:54:14.304Z,100875.66
2023-04-30T04:56:44.867Z,100877.75
2023-04-30T04:59:15.032Z,100873.94
2023-04-30T05:01:45.741Z,100871.91
2023-04-30T05:04:15.723Z,100864.75
2023-04-30T05:06:48.191Z,100870.13
2023-04-30T05:09:18.661Z,100871.09
2023-04-30T05:11:50.398Z,100864.72
2023-04-30T05:14:22.030Z,100863.38
2023-04-30T05:16:52.590Z,100855.78
2023-04-30T05:19:23.303Z,100857.56
2023-04-30T05:21:53.795Z,100862.47
2023-04-30T05:24:23.764Z,100850.66
2023-04-30T05:26:54.184Z,100851.59
2023-04-30T05:29:23.944Z,100854.72
2023-04-30T05:31:54.754Z,100848.91
2023-04-30T05:34:24.944Z,100856.38
2023-04-30T05:36:55.437Z,100854.25
2023-04-30T05:39:25.307Z,100857.00
2023-04-30T05:41:55.739Z,100852.03
2023-04-30T05:44:25.681Z,100855.34
2023-04-30T05:46:56.181Z,100849.44
2023-04-30T05:49:26.287Z,100852.53
2023-04-30T05:51:56.195Z,100844.84
2023-04-30T05:54:26.551Z,100850.91
2023-04-30T05:56:56.626Z,100854.50
2023-04-30T05:59:27.158Z,100853.22
2023-04-30T06:01:57.386Z,100840.66
2023-04-30T06:04:27.834Z,100845.53
2023-04-30T06:06:58.507Z,100847.44
2023-04-30T06:09:28.775Z,100846.72
2023-04-30T06:11:58.967Z,100842.25
2023-04-30T06:14:29.398Z,100838.38
2023-04-30T06:16:59.468Z,100846.78
2023-04-30T06:19:29.867Z,100848.97
2023-04-30T06:21:59.946Z,100840.78
2023-04-30T06:24:31.540Z,100837.84
2023-04-30T06:27:02.670Z,100841.66
2023-04-30T06:29:32.981Z,100839.31
2023-04-30T06:32:02.932Z,100836.28
2023-04-30T06:34:33.506Z,100843.53
2023-04-30T06:37:03.440Z,100840.44
2023-04-30T06:39:33.215Z,100843.38
2023-04-30T06:42:03.609Z,100842.97
2023-04-30T06:44:34.226Z,100840.31
2023-04-30T06:47:04.614Z,100834.13
2023-04-30T06:49:34.527Z,100826.00
2023-04-30T06:52:05.713Z,100821.94
2023-04-30T06:54:35.654Z,100820.44
2023-04-30T06:57:06.026Z,100806.97
2023-04-30T06:59:35.933Z,100810.59
2023-04-30T07:02:06.294Z,100813.94
2023-04-30T07:04:36.533Z,100808.13
2023-04-30T07:07:07.057Z,100815.78
2023-04-30T07:09:37.621Z,100814.84
2023-04-30T07:12:08.019Z,100805.41
2023-04-30T07:14:37.906Z,100817.19
2023-04-30T07:17:08.369Z,100814.56
2023-04-30T07:19:38.353Z,100810.31
2023-04-30T07:22:08.679Z,100814.28
2023-04-30T07:24:38.721Z,100814.84
2023-04-30T07:27:09.042Z,100817.53
2023-04-30T07:29:38.925Z,100814.38
2023-04-30T07:32:09.310Z,100813.69
2023-04-30T07:34:39.453Z,100812.38
2023-04-30T07:37:10.843Z,100815.78
2023-04-30T07:39:40.854Z,100818.50
2023-04-30T07:42:11.205Z,100816.53
2023-04-30T07:44:42.315Z,100814.59
2023-04-30T07:47:12.750Z,100807.34
2023-04-30T07:49:42.817Z,100817.19
2023-04-30T07:52:13.647Z,100812.09
2023-04-30T07:54:43.671Z,100813.66
2023-04-30T07:57:14.205Z,100814.44
2023-04-30T07:59:44.122Z,100817.16
2023-04-30T08:02:15.413Z,100815.28
2023-04-30T08:04:45.492Z,100825.22
2023-04-30T08:07:17.113Z,100830.56
2023-04-30T08:09:47.016Z,100828.94
2023-04-30T08:12:19.858Z,100824.78
2023-04-30T08:14:49.786Z,100822.09
2023-04-30T08:17:20.184Z,100822.81
2023-04-30T08:19:50.200Z,100819.06
2023-04-30T08:22:20.576Z,100825.63
2023-04-30T08:24:50.658Z,100819.94
2023-04-30T08:27:20.984Z,100827.91
2023-04-30T08:29:50.927Z,100823.88
2023-04-30T08:32:21.584Z,100830.19
2023-04-30T08:34:51.563Z,100834.06
2023-04-30T08:37:22.012Z,100840.19
2023-04-30T08:39:51.969Z,100851.59
2023-04-30T08:42:26.119Z,100854.16
2023-04-30T08:44:56.073Z,100846.78
2023-04-30T08:47:28.315Z,100855.81
2023-04-30T08:49:58.374Z,100847.44
2023-04-30T08:52:31.722Z,100848.06
2023-04-30T08:55:03.451Z,100846.09
2023-04-30T08:57:33.753Z,100846.03
2023-04-30T09:00:03.745Z,100853.25
2023-04-30T09:02:35.256Z,100849.75
2023-04-30T09:05:09.014Z,100848.56
2023-04-30T09:08:01.055Z,100858.47
2023-04-30T09:10:37.406Z,100844.78
2023-04-30T09:13:10.422Z,100852.97
2023-04-30T09:15:42.695Z,100852.97
2023-04-30T09:18:19.203Z,100854.91
2023-04-30T09:21:04.057Z,100850.81
2023-04-30T09:23:34.422Z,100859.00
2023-04-30T09:26:05.086Z,100860.31
2023-04-30T09:28:36.269Z,100868.59
2023-04-30T09:31:20.480Z,100870.59
2023-04-30T09:33:50.903Z,100879.47
2023-04-30T09:36:20.828Z,100873.53
2023-04-30T09:38:51.256Z,100873.63
2023-04-30T09:41:25.526Z,100874.94
2023-04-30T09:43:57.430Z,100872.72
2023-04-30T09:46:39.403Z,100876.75
2023-04-30T09:49:13.056Z,100879.06
2023-04-30T09:51:57.688Z,100872.41
2023-04-30T09:54:31.504Z,100873.34
2023-04-30T09:57:03.320Z,100870.81
2023-04-30T09:59:39.078Z,100874.91
2023-04-30T10:02:10.874Z,100878.34
2023-04-30T10:04:46.617Z,100876.00
2023-04-30T10:07:22.990Z,100878.31
2023-04-30T10:09:57.708Z,100888.06
2023-04-30T10:12:44.759Z,100885.03
2023-04-30T10:15:26.973Z,100886.66
2023-04-30T10:18:05.922Z,100891.06
2023-04-30T10:20:38.551Z,100907.81
2023-04-30T10:23:09.712Z,100899.59
2023-04-30T10:25:42.083Z,100908.59
2023-04-30T10:28:13.763Z,100910.31
2023-04-30T10:30:46.956Z,100899.16
2023-04-30T10:33:26.621Z,100911.00
2023-04-30T10:36:06.980Z,100912.19
2023-04-30T10:38:39.129Z,100914.06
2023-04-30T10:41:10.704Z,100917.38
2023-04-30T10:43:40.813Z,100921.03
2023-04-30T10:46:11.191Z,100927.47
2023-04-30T10:48:41.206Z,100926.97
2023-04-30T10:51:11.646Z,100923.41
2023-04-30T10:53:44.209Z,100930.00
2023-04-30T10:56:14.566Z,100922.44
2023-04-30T10:58:45.241Z,100926.88
2023-04-30T11:01:17.098Z,100931.97
2023-04-30T11:04:07.397Z,100949.31
2023-04-30T11:07:13.861Z,100936.97
2023-04-30T11:09:46.542Z,100949.56
2023-04-30T11:12:32.020Z,100949.63
2023-04-30T11:15:17.712Z,100939.56
2023-04-30T11:17:50.174Z,100942.66
2023-04-30T11:20:25.825Z,100950.16
2023-04-30T11:23:28.142Z,100950.75
2023-04-30T11:26:08.742Z,100961.28
2023-04-30T11:28:42.522Z,100962.13
2023-04-30T11:31:14.115Z,100960.50
2023-04-30T11:33:45.493Z,100965.47
2023-04-30T11:36:16.256Z,100971.84
2023-04-30T11:38:46.948Z,100968.88
2023-04-30T11:41:17.217Z,100979.09
2023-04-30T11:43:47.643Z,100983.56
2023-04-30T11:46:21.237Z,100982.22
2023-04-30T11:48:52.563Z,100980.63
2023-04-30T11:51:25.203Z,100988.47
2023-04-30T11:53:55.873Z,100979.78
2023-04-30T11:56:27.352Z,100990.22
2023-04-30T11:58:57.787Z,100998.94
2023-04-30T12:01:30.567Z,100994.00
2023-04-30T12:04:01.692Z,101001.50
2023-04-30T12:06:32.361Z,100993.63
2023-04-30T12:09:13.062Z,101003.31
2023-04-30T12:11:43.232Z,101001.38
2023-04-30T12:14:13.788Z,101001.59
2023-04-30T12:16:52.211Z,101001.34
2023-04-30T12:19:28.111Z,100995.34
2023-04-30T12:21:58.252Z,100997.16
2023-04-30T12:24:29.164Z,101002.03
2023-04-30T12:27:03.191Z,101010.09
2023-04-30T12:29:34.397Z,101002.16
2023-04-30T12:32:04.960Z,100994.25
2023-04-30T12:34:35.342Z,100993.72
2023-04-30T12:37:05.088Z,100992.25
2023-04-30T12:39:37.038Z,100997.59
2023-04-30T12:42:07.425Z,100990.97
2023-04-30T12:44:47.196Z,100984.47
2023-04-30T12:47:18.137Z,100979.16
2023-04-30T12:49:48.716Z,100973.88
2023-04-30T12:52:18.741Z,100990.38
2023-04-30T12:54:49.110Z,100989.66
2023-04-30T12:57:18.993Z,100985.13
2023-04-30T12:59:55.272Z,100991.25
2023-04-30T13:02:27.076Z,100990.09
2023-04-30T13:04:58.056Z,100986.06
2023-04-30T13:07:28.104Z,100987.06
2023-04-30T13:09:58.632Z,100984.59
2023-04-30T13:12:28.545Z,100984.25
2023-04-30T13:14:58.618Z,100985.47
2023-04-30T13:17:29.032Z,100977.19
2023-04-30T13:19:59.038Z,100978.66
2023-04-30T13:22:30.740Z,100979.56
2023-04-30T13:25:01.039Z,100974.19
2023-04-30T13:27:31.341Z,100972.78
2023-04-30T13:30:02.706Z,100977.47
2023-04-30T13:32:32.618Z,100978.25
2023-04-30T13:35:02.403Z,100979.19
2023-04-30T13:37:36.822Z,100976.94
2023-04-30T13:40:11.151Z,100974.81
2023-04-30T13:42:42.813Z,100967.16
2023-04-30T13:45:13.954Z,100973.66
2023-04-30T13:47:43.940Z,100961.13
2023-04-30T13:50:14.435Z,100971.00
2023-04-30T13:52:44.517Z,100967.47
2023-04-30T13:55:15.020Z,100959.06
2023-04-30T13:57:44.996Z,100966.09
2023-04-30T14:00:17.172Z,100960.88
2023-04-30T14:02:46.739Z,100943.59
2023-04-30T14:05:17.113Z,100946.09
2023-04-30T14:07:47.031Z,100940.84
2023-04-30T14:10:17.423Z,100930.84
2023-04-30T14:12:47.639Z,100930.38
2023-04-30T14:15:18.147Z,100930.75
2023-04-30T14:17:48.090Z,100928.13
2023-04-30T14:20:18.497Z,100915.47
2023-04-30T14:22:48.710Z,100916.41
2023-04-30T14:25:19.259Z,100902.69
2023-04-30T14:27:49.329Z,100906.38
2023-04-30T14:30:19.774Z,100900.06
2023-04-30T14:32:49.799Z,100904.63
2023-04-30T14:35:20.337Z,100905.59
2023-04-30T14:37:50.296Z,100892.34
2023-04-30T14:40:21.045Z,100887.09
2023-04-30T14:42:51.694Z,100886.28
2023-04-30T14:45:22.171Z,100883.84
2023-04-30T14:47:52.112Z,100883.91
2023-04-30T14:50:22.566Z,100873.72
2023-04-30T14:52:52.826Z,100859.63
2023-04-30T14:55:23.200Z,100854.19
2023-04-30T14:57:53.106Z,100852.72
2023-04-30T15:00:23.472Z,100848.25
2023-04-30T15:02:55.320Z,100848.22
2023-04-30T15:05:25.860Z,100848.53
2023-04-30T15:07:55.569Z,100842.19
2023-04-30T15:10:26.428Z,100833.59
2023-04-30T15:12:56.309Z,100829.66
2023-04-30T15:15:30.269Z,100825.88
2023-04-30T15:18:00.585Z,100815.56
2023-04-30T15:20:31.010Z,100816.72
2023-04-30T15:23:01.173Z,100807.25
2023-04-30T15:25:31.579Z,100812.13
2023-04-30T15:28:02.599Z,100799.06
2023-04-30T15:30:33.847Z,100799.03
2023-04-30T15:33:04.564Z,100788.44
2023-04-30T15:35:34.982Z,100782.56
2023-04-30T15:38:04.698Z,100789.81
2023-04-30T15:40:35.069Z,100777.88
2023-04-30T15:43:06.878Z,100767.16
2023-04-30T15:45:37.464Z,100756.56
2023-04-30T15:48:07.768Z,100769.31
2023-04-30T15:50:38.250Z,100765.59
2023-04-30T15:53:08.218Z,100756.59
2023-04-30T15:55:39.748Z,100757.88
2023-04-30T15:58:09.854Z,100755.56
2023-04-30T16:00:40.884Z,100746.09
2023-04-30T16:03:10.868Z,100744.00
2023-04-30T16:05:42.432Z,100743.69
2023-04-30T16:08:13.290Z,100733.16
2023-04-30T16:10:44.557Z,100732.22
2023-04-30T16:13:15.045Z,100725.66
2023-04-30T16:15:45.468Z,100722.84
2023-04-30T16:18:15.522Z,100714.69
2023-04-30T16:20:48.369Z,100715.25
2023-04-30T16:23:18.369Z,100709.28
2023-04-30T16:25:48.767Z,100701.28
2023-04-30T16:28:18.654Z,100703.38
2023-04-30T16:30:49.282Z,100691.19
2023-04-30T16:33:19.293Z,100678.28
2023-04-30T16:35:50.099Z,100678.78
2023-04-30T16:38:20.050Z,100680.75
2023-04-30T16:40:51.325Z,100668.09
2023-04-30T16:43:21.274Z,100668.06
2023-04-30T16:45:51.850Z,100661.50
2023-04-30T16:48:22.059Z,100653.97
2023-04-30T16:50:52.654Z,100648.19
2023-04-30T16:53:23.053Z,100637.56
2023-04-30T16:55:54.058Z,100645.38
2023-04-30T16:58:24.018Z,100636.06
2023-04-30T17:00:57.195Z,100627.88
2023-04-30T17:03:27.240Z,100618.34
2023-04-30T17:05:57.809Z,100604.00
2023-04-30T17:08:27.828Z,100604.91
2023-04-30T17:10:58.435Z,100611.06
2023-04-30T17:13:28.467Z,100596.53
2023-04-30T17:16:02.053Z,100604.69
2023-04-30T17:18:32.328Z,100595.91
2023-04-30T17:21:02.677Z,100586.75
2023-04-30T17:23:33.051Z,100590.72
2023-04-30T17:26:05.009Z,100581.84
2023-04-30T17:28:34.458Z,100572.13
2023-04-30T17:31:07.882Z,100576.53
2023-04-30T17:33:37.880Z,100569.28
2023-04-30T17:36:10.065Z,100569.56
2023-04-30T17:38:40.405Z,100566.34
2023-04-30T17:41:10.818Z,100562.78
2023-04-30T17:43:40.980Z,100562.84
2023-04-30T17:46:11.741Z,100558.34
2023-04-30T17:48:41.841Z,100563.47
2023-04-30T17:51:12.400Z,100546.59
2023-04-30T17:53:42.419Z,100557.88
2023-04-30T17:56:13.386Z,100552.19
2023-04-30T17:58:43.296Z,100549.59
2023-04-30T18:01:14.343Z,100534.50
2023-04-30T18:03:44.488Z,100527.59
2023-04-30T18:06:14.517Z,100533.06
2023-04-30T18:08:45.303Z,100537.03
2023-04-30T18:11:15.883Z,100523.16
2023-04-30T18:13:46.068Z,100518.00
2023-04-30T18:16:16.449Z,100523.56
2023-04-30T18:18:46.183Z,100526.03
2023-04-30T18:21:16.508Z,100518.78
2023-04-30T18:23:46.216Z,100516.09
2023-04-30T18:26:19.331Z,100517.28
2023-04-30T18:28:50.789Z,100511.00
2023-04-30T18:31:21.983Z,100522.94
2023-04-30T18:33:51.943Z,100510.53
2023-04-30T18:36:22.424Z,100514.63
2023-04-30T18:38:52.960Z,100503.44
2023-04-30T18:41:23.419Z,100508.53
2023-04-30T18:43:53.327Z,100504.59
2023-04-30T18:46:24.173Z,100501.97
2023-04-30T18:48:54.569Z,100501.84
2023-04-30T18:51:24.406Z,100497.41
2023-04-30T18:53:55.156Z,100497.63
2023-04-30T18:56:25.790Z,100493.59
2023-04-30T18:58:56.185Z,100495.66
2023-04-30T19:01:28.316Z,100499.44
2023-04-30T19:03:58.829Z,100501.66
2023-04-30T19:06:29.347Z,100498.84
2023-04-30T19:09:00.815Z,100495.28
2023-04-30T19:11:30.898Z,100485.28
2023-04-30T19:14:01.211Z,100484.25
2023-04-30T19:16:31.598Z,100487.50
2023-04-30T19:19:02.124Z,100476.25
2023-04-30T19:21:33.533Z,100471.50
2023-04-30T19:24:07.065Z,100478.16
2023-04-30T19:26:38.573Z,100479.47
2023-04-30T19:29:08.886Z,100472.09
2023-04-30T19:31:39.002Z,100465.38
2023-04-30T19:34:09.361Z,100457.00
2023-04-30T19:36:39.284Z,100455.84
2023-04-30T19:39:11.881Z,100466.84
2023-04-30T19:41:42.109Z,100465.88
2023-04-30T19:44:12.754Z,100466.47
2023-04-30T19:46:43.498Z,100459.72
2023-04-30T19:49:14.119Z,100464.84
2023-04-30T19:51:44.159Z,100463.38
2023-04-30T19:54:15.368Z,100465.97
2023-04-30T19:56:45.751Z,100458.88
2023-04-30T19:59:16.162Z,100466.13
2023-04-30T20:01:46.486Z,100458.75
2023-04-30T20:04:16.836Z,100467.56
2023-04-30T20:06:48.643Z,100465.50
2023-04-30T20:09:18.645Z,100453.53
2023-04-30T20:11:50.772Z,100463.03
2023-04-30T20:14:21.199Z,100456.34
2023-04-30T20:16:55.383Z,100454.13
2023-04-30T20:19:26.585Z,100455.72
2023-04-30T20:21:56.488Z,100458.00
2023-04-30T20:24:26.869Z,100461.97
2023-04-30T20:26:56.793Z,100463.78
2023-04-30T20:29:27.097Z,100468.81
2023-04-30T20:31:59.547Z,100468.31
2023-04-30T20:34:30.169Z,100469.19
2023-04-30T20:37:00.855Z,100478.19
2023-04-30T20:39:31.288Z,100484.59
2023-04-30T20:42:02.510Z,100491.00
2023-04-30T20:44:32.854Z,100484.00
2023-04-30T20:47:06.523Z,100496.44
2023-04-30T20:49:37.040Z,100493.03
2023-04-30T20:52:09.976Z,100494.19
2023-04-30T20:54:40.643Z,100486.59
2023-04-30T20:57:10.806Z,100487.63
2023-04-30T20:59:41.209Z,100492.31
2023-04-30T21:02:11.416Z,100492.53
2023-04-30T21:04:41.964Z,100495.34
2023-04-30T21:07:11.973Z,100501.31
2023-04-30T21:09:42.741Z,100499.50
2023-04-30T21:12:14.194Z,100505.00
2023-04-30T21:14:44.548Z,100509.59
2023-04-30T21:17:15.739Z,100516.47
2023-04-30T21:19:46.037Z,100521.91
2023-04-30T21:22:16.050Z,100525.31
2023-04-30T21:24:46.371Z,100522.09
2023-04-30T21:27:16.306Z,100528.88
2023-04-30T21:29:47.976Z,100526.78
2023-04-30T21:32:18.875Z,100536.97
2023-04-30T21:34:49.387Z,100543.41
2023-04-30T21:37:19.451Z,100539.25
2023-04-30T21:39:49.802Z,100544.53
2023-04-30T21:42:19.798Z,100548.19
2023-04-30T21:44:50.213Z,100554.63
2023-04-30T21:47:20.098Z,100550.13
2023-04-30T21:49:49.780Z,100550.00
2023-04-30T21:52:20.294Z,100551.72
2023-04-30T21:54:52.959Z,100554.22
2023-04-30T21:57:23.348Z,100551.97
2023-04-30T21:59:53.354Z,100559.81
2023-04-30T22:02:24.610Z,100564.31
2023-04-30T22:04:55.181Z,100572.75
2023-04-30T22:07:25.737Z,100569.88
2023-04-30T22:09:56.003Z,100572.03
2023-04-30T22:12:27.091Z,100580.66
2023-04-30T22:14:57.299Z,100580.41
2023-04-30T22:17:28.660Z,100597.91
2023-04-30T22:19:58.985Z,100598.38
2023-04-30T22:22:29.498Z,100598.09
2023-04-30T22:24:59.378Z,100607.31
2023-04-30T22:27:29.781Z,100613.53
2023-04-30T22:30:00.194Z,100613.53
2023-04-30T22:32:30.599Z,100619.91
2023-04-30T22:35:12.285Z,100623.44
2023-04-30T22:37:42.646Z,100618.22
2023-04-30T22:40:12.979Z,100626.28
2023-04-30T22:42:44.232Z,100630.00
2023-04-30T22:45:14.429Z,100626.38
2023-04-30T22:47:46.869Z,100641.44
2023-04-30T22:50:16.891Z,100640.94
2023-04-30T22:52:47.867Z,100644.13
2023-04-30T22:55:18.012Z,100645.63
2023-04-30T22:57:48.322Z,100648.69
2023-04-30T23:00:19.935Z,100656.47
2023-04-30T23:02:51.238Z,100651.97
2023-04-30T23:05:21.267Z,100656.25
2023-04-30T23:07:51.724Z,100654.06
2023-04-30T23:10:21.689Z,100661.66
2023-04-30T23:12:52.198Z,100668.63
2023-04-30T23:15:22.249Z,100665.59
2023-04-30T23:17:52.841Z,100675.34
2023-04-30T23:20:23.699Z,100675.00
2023-04-30T23:22:54.064Z,100675.16
2023-04-30T23:25:24.048Z,100675.19
2023-04-30T23:27:55.034Z,100680.59
2023-04-30T23:30:24.964Z,100675.81
2023-04-30T23:32:55.797Z,100681.66
2023-04-30T23:35:25.786Z,100691.78
2023-04-30T23:37:56.201Z,100684.63
2023-04-30T23:40:26.091Z,100691.78
2023-04-30T23:42:56.456Z,100690.28
2023-04-30T23:45:26.465Z,100691.69
2023-04-30T23:47:56.815Z,100694.53
2023-04-30T23:50:27.343Z,100697.88
2023-04-30T23:52:57.767Z,100693.50
2023-04-30T23:55:27.806Z,100696.28
2023-04-30T23:57:58.113Z,100704.34
